createdAt,value
2022-10-11T00:00:37.401Z,100664.78
2022-10-11T00:03:39.700Z,100661.28
2022-10-11T00:06:43.852Z,100659.06
2022-10-11T00:09:46.378Z,100661.84
2022-10-11T00:12:48.654Z,100650.44
2022-10-11T00:15:51.489Z,100653.94
2022-10-11T00:18:53.897Z,100655.44
2022-10-11T00:21:56.201Z,100640.19
2022-10-11T00:24:59.316Z,100649.41
2022-10-11T00:28:01.667Z,100656.63
2022-10-11T00:31:11.324Z,100654.66
2022-10-11T00:34:15.690Z,100635.66
2022-10-11T00:37:18.794Z,100645.81
2022-10-11T00:40:21.241Z,100638.34
2022-10-11T00:43:26.108Z,100643.25
2022-10-11T00:46:30.666Z,100648.72
2022-10-11T00:49:32.842Z,100637.75
2022-10-11T00:52:38.525Z,100644.16
2022-10-11T00:55:53.486Z,100648.91
2022-10-11T00:58:56.474Z,100631.56
2022-10-11T01:01:58.923Z,100622.59
2022-10-11T01:05:27.558Z,100636.69
2022-10-11T01:08:24.005Z,100629.50
2022-10-11T01:11:27.597Z,100624.81
2022-10-11T01:14:41.898Z,100635.41
2022-10-11T01:18:16.118Z,100632.28
2022-10-11T01:21:31.123Z,100639.84
2022-10-11T01:24:36.506Z,100638.09
2022-10-11T01:27:48.506Z,100625.72
2022-10-11T01:30:51.513Z,100638.66
2022-10-11T01:34:06.369Z,100621.31
2022-10-11T01:37:17.807Z,100628.19
2022-10-11T01:40:42.654Z,100629.91
2022-10-11T01:43:45.918Z,100631.28
2022-10-11T01:46:48.192Z,100631.56
2022-10-11T01:49:58.543Z,100619.22
2022-10-11T01:53:16.223Z,100616.06
2022-10-11T01:56:37.099Z,100617.16
2022-10-11T01:59:51.620Z,100620.66
2022-10-11T02:03:06.480Z,100620.66
2022-10-11T02:06:50.241Z,100612.16
2022-10-11T02:10:00.481Z,100618.66
2022-10-11T02:13:13.684Z,100608.03
2022-10-11T02:16:19.897Z,100610.25
2022-10-11T02:19:26.646Z,100611.31
2022-10-11T02:22:33.155Z,100611.44
2022-10-11T02:25:36.485Z,100610.03
2022-10-11T02:28:40.113Z,100602.69
2022-10-11T02:31:43.436Z,100598.25
2022-10-11T02:34:53.560Z,100608.19
2022-10-11T02:38:03.824Z,100615.97
2022-10-11T02:41:12.094Z,100613.63
2022-10-11T02:44:19.062Z,100618.06
2022-10-11T02:47:21.345Z,100605.22
2022-10-11T02:50:23.846Z,100616.16
2022-10-11T02:53:27.080Z,100612.81
2022-10-11T02:56:29.399Z,100611.53
2022-10-11T02:59:31.633Z,100614.00
2022-10-11T03:02:34.150Z,100620.72
2022-10-11T03:05:40.762Z,100633.06
2022-10-11T03:08:43.073Z,100635.72
2022-10-11T03:11:45.338Z,100626.75
2022-10-11T03:14:47.631Z,100628.16
2022-10-11T03:17:49.955Z,100623.28
2022-10-11T03:20:52.224Z,100630.97
2022-10-11T03:23:54.508Z,100625.03
2022-10-11T03:26:56.810Z,100632.72
2022-10-11T03:29:59.301Z,100636.44
2022-10-11T03:33:01.549Z,100630.16
2022-10-11T03:36:04.319Z,100634.69
2022-10-11T03:39:07.069Z,100633.31
2022-10-11T03:42:09.327Z,100637.53
2022-10-11T03:45:11.698Z,100636.34
2022-10-11T03:48:13.981Z,100626.09
2022-10-11T03:51:16.338Z,100633.00
2022-10-11T03:54:18.576Z,100639.50
2022-10-11T03:57:20.901Z,100638.69
2022-10-11T04:00:23.331Z,100632.03
2022-10-11T04:03:25.755Z,100642.16
2022-10-11T04:06:28.026Z,100638.22
2022-10-11T04:09:30.390Z,100643.19
2022-10-11T04:12:33.078Z,100629.59
2022-10-11T04:15:36.863Z,100653.03
2022-10-11T04:18:39.186Z,100644.72
2022-10-11T04:21:41.552Z,100658.38
2022-10-11T04:24:43.862Z,100637.75
2022-10-11T04:27:46.154Z,100647.31
2022-10-11T04:30:48.437Z,100658.69
2022-10-11T04:33:50.851Z,100656.28
2022-10-11T04:36:53.240Z,100650.56
2022-10-11T04:39:55.967Z,100649.53
2022-10-11T04:42:58.750Z,100658.38
2022-10-11T04:46:01.049Z,100655.34
2022-10-11T04:49:03.607Z,100654.88
2022-10-11T04:52:05.913Z,100658.13
2022-10-11T04:55:08.629Z,100648.47
2022-10-11T04:58:10.949Z,100652.09
2022-10-11T05:01:13.208Z,100651.63
2022-10-11T05:04:15.551Z,100661.16
2022-10-11T05:07:17.817Z,100658.13
2022-10-11T05:10:20.087Z,100658.94
2022-10-11T05:13:22.584Z,100661.06
2022-10-11T05:16:25.187Z,100662.44
2022-10-11T05:19:27.523Z,100659.53
2022-10-11T05:22:29.765Z,100662.19
2022-10-11T05:25:31.996Z,100658.38
2022-10-11T05:28:34.409Z,100653.84
2022-10-11T05:31:36.742Z,100655.34
2022-10-11T05:34:38.999Z,100666.53
2022-10-11T05:37:41.388Z,100668.16
2022-10-11T05:40:43.707Z,100656.28
2022-10-11T05:43:46.089Z,100663.13
2022-10-11T05:46:48.482Z,100675.94
2022-10-11T05:49:50.774Z,100684.09
2022-10-11T05:52:53.012Z,100689.59
2022-10-11T05:55:55.473Z,100689.94
2022-10-11T05:59:02.156Z,100697.38
2022-10-11T06:02:04.774Z,100684.22
2022-10-11T06:05:07.296Z,100693.75
2022-10-11T06:08:11.219Z,100699.94
2022-10-11T06:11:16.084Z,100701.91
2022-10-11T06:14:18.544Z,100700.97
2022-10-11T06:17:20.849Z,100703.78
2022-10-11T06:20:23.085Z,100697.97
2022-10-11T06:23:26.007Z,100715.00
2022-10-11T06:26:29.507Z,100715.81
2022-10-11T06:29:31.731Z,100705.19
2022-10-11T06:32:34.036Z,100725.03
2022-10-11T06:35:36.329Z,100713.09
2022-10-11T06:38:43.800Z,100716.59
2022-10-11T06:41:47.237Z,100705.81
2022-10-11T06:44:49.511Z,100707.19
2022-10-11T06:47:51.877Z,100718.81
2022-10-11T06:50:59.934Z,100721.75
2022-10-11T06:54:02.983Z,100723.63
2022-10-11T06:57:05.342Z,100714.56
2022-10-11T07:00:12.452Z,100716.03
2022-10-11T07:03:15.089Z,100720.59
2022-10-11T07:06:24.947Z,100715.28
2022-10-11T07:09:27.218Z,100697.53
2022-10-11T07:12:29.509Z,100725.72
2022-10-11T07:15:31.768Z,100719.03
2022-10-11T07:18:34.436Z,100719.28
2022-10-11T07:21:36.746Z,100722.72
2022-10-11T07:24:38.969Z,100736.97
2022-10-11T07:27:41.213Z,100737.97
2022-10-11T07:30:44.163Z,100737.97
2022-10-11T07:33:46.684Z,100734.41
2022-10-11T07:36:49.136Z,100725.75
2022-10-11T07:39:51.385Z,100731.22
2022-10-11T07:42:53.865Z,100731.19
2022-10-11T07:45:57.166Z,100728.09
2022-10-11T07:48:59.586Z,100724.81
2022-10-11T07:52:01.830Z,100725.19
2022-10-11T07:55:04.577Z,100723.59
2022-10-11T07:58:11.584Z,100720.81
2022-10-11T08:01:14.724Z,100735.53
2022-10-11T08:04:17.113Z,100727.00
2022-10-11T08:07:21.576Z,100729.78
2022-10-11T08:10:26.315Z,100735.31
2022-10-11T08:13:29.915Z,100729.34
2022-10-11T08:16:32.208Z,100735.63
2022-10-11T08:19:34.743Z,100736.22
2022-10-11T08:22:37.050Z,100743.38
2022-10-11T08:25:41.001Z,100749.13
2022-10-11T08:28:43.412Z,100742.91
2022-10-11T08:31:45.766Z,100740.28
2022-10-11T08:34:48.053Z,100744.38
2022-10-11T08:37:50.351Z,100747.09
2022-10-11T08:40:55.369Z,100743.06
2022-10-11T08:44:24.605Z,100732.50
2022-10-11T08:47:35.750Z,100744.97
2022-10-11T08:50:38.574Z,100739.50
2022-10-11T08:53:54.107Z,100750.28
2022-10-11T08:56:56.466Z,100738.88
2022-10-11T09:00:01.260Z,100745.94
2022-10-11T09:03:26.870Z,100756.03
2022-10-11T09:06:32.111Z,100749.81
2022-10-11T09:10:02.265Z,100747.66
2022-10-11T09:13:13.615Z,100751.69
2022-10-11T09:16:37.088Z,100740.25
2022-10-11T09:20:17.768Z,100733.38
2022-10-11T09:23:43.174Z,100738.88
2022-10-11T09:26:59.574Z,100741.75
2022-10-11T09:30:15.879Z,100745.13
2022-10-11T09:33:29.310Z,100750.75
2022-10-11T09:36:39.099Z,100750.66
2022-10-11T09:39:53.667Z,100753.84
2022-10-11T09:42:55.986Z,100740.94
2022-10-11T09:45:58.356Z,100739.91
2022-10-11T09:49:04.303Z,100740.25
2022-10-11T09:52:14.490Z,100746.09
2022-10-11T09:55:37.362Z,100741.25
2022-10-11T09:58:40.405Z,100733.69
2022-10-11T10:01:42.774Z,100737.72
2022-10-11T10:04:53.856Z,100739.88
2022-10-11T10:08:11.307Z,100742.75
2022-10-11T10:11:14.450Z,100744.13
2022-10-11T10:14:23.034Z,100735.25
2022-10-11T10:17:25.372Z,100724.84
2022-10-11T10:20:32.348Z,100725.94
2022-10-11T10:23:36.441Z,100732.56
2022-10-11T10:26:40.010Z,100730.25
2022-10-11T10:29:43.275Z,100730.00
2022-10-11T10:32:56.244Z,100737.59
2022-10-11T10:36:04.101Z,100723.97
2022-10-11T10:39:27.277Z,100719.53
2022-10-11T10:42:29.702Z,100717.63
2022-10-11T10:45:44.531Z,100714.31
2022-10-11T10:49:28.291Z,100721.59
2022-10-11T10:52:24.066Z,100719.69
2022-10-11T10:55:45.333Z,100711.31
2022-10-11T10:59:20.425Z,100720.44
2022-10-11T11:02:51.921Z,100717.19
2022-10-11T11:06:03.720Z,100717.09
2022-10-11T11:09:18.690Z,100714.28
2022-10-11T11:12:39.204Z,100715.97
2022-10-11T11:15:52.033Z,100722.22
2022-10-11T11:19:14.996Z,100707.91
2022-10-11T11:22:40.029Z,100716.31
2022-10-11T11:26:01.648Z,100713.34
2022-10-11T11:29:07.345Z,100710.63
2022-10-11T11:32:48.644Z,100700.34
2022-10-11T11:35:53.952Z,100711.72
2022-10-11T11:38:59.415Z,100708.97
2022-10-11T11:42:07.945Z,100694.00
2022-10-11T11:45:19.039Z,100699.00
2022-10-11T11:48:24.901Z,100693.59
2022-10-11T11:51:34.165Z,100686.88
2022-10-11T11:54:50.653Z,100682.84
2022-10-11T11:58:11.285Z,100696.66
2022-10-11T12:01:37.952Z,100690.97
2022-10-11T12:04:42.693Z,100684.75
2022-10-11T12:07:54.402Z,100701.28
2022-10-11T12:11:00.933Z,100684.41
2022-10-11T12:14:34.589Z,100682.44
2022-10-11T12:17:58.066Z,100691.06
2022-10-11T12:21:07.484Z,100680.28
2022-10-11T12:24:12.957Z,100685.88
2022-10-11T12:27:53.049Z,100681.94
2022-10-11T12:31:05.271Z,100679.81
2022-10-11T12:34:16.562Z,100671.78
2022-10-11T12:37:19.330Z,100678.56
2022-10-11T12:40:37.538Z,100674.19
2022-10-11T12:43:48.982Z,100674.34
2022-10-11T12:46:51.539Z,100669.03
2022-10-11T12:50:04.326Z,100648.56
2022-10-11T12:53:30.123Z,100662.25
2022-10-11T12:56:47.436Z,100663.69
2022-10-11T12:59:49.942Z,100665.41
2022-10-11T13:02:52.492Z,100647.22
2022-10-11T13:06:01.465Z,100670.22
2022-10-11T13:09:25.150Z,100655.59
2022-10-11T13:12:31.310Z,100658.38
2022-10-11T13:15:34.654Z,100664.03
2022-10-11T13:18:48.514Z,100661.09
2022-10-11T13:21:54.955Z,100665.94
2022-10-11T13:24:58.011Z,100668.19
2022-10-11T13:28:00.392Z,100654.44
2022-10-11T13:31:03.831Z,100662.03
2022-10-11T13:34:06.506Z,100654.31
2022-10-11T13:37:18.732Z,100653.50
2022-10-11T13:40:21.973Z,100668.16
2022-10-11T13:43:26.387Z,100669.66
2022-10-11T13:46:30.494Z,100671.94
2022-10-11T13:54:45.287Z,100675.47
2022-10-11T14:07:42.851Z,100648.28
2022-10-11T14:11:18.039Z,100656.13
2022-10-11T14:14:35.773Z,100676.38
2022-10-11T14:17:44.620Z,100675.84
2022-10-11T14:20:46.993Z,100661.81
2022-10-11T14:24:01.775Z,100679.97
2022-10-11T14:27:05.499Z,100678.94
2022-10-11T14:30:27.248Z,100671.66
2022-10-11T14:33:30.010Z,100678.44
2022-10-11T14:36:32.288Z,100667.88
2022-10-11T14:39:34.629Z,100672.22
2022-10-11T14:42:36.926Z,100663.81
2022-10-11T14:45:39.330Z,100665.16
2022-10-11T14:48:55.063Z,100669.22
2022-10-11T14:51:59.246Z,100671.09
2022-10-11T14:55:01.951Z,100673.28
2022-10-11T14:58:05.474Z,100679.22
2022-10-11T15:01:12.363Z,100675.44
2022-10-11T15:04:14.665Z,100675.47
2022-10-11T15:07:17.001Z,100676.28
2022-10-11T15:10:30.447Z,100671.16
2022-10-11T15:13:32.754Z,100675.19
2022-10-11T15:16:35.634Z,100686.00
2022-10-11T15:19:37.970Z,100681.44
2022-10-11T15:22:40.261Z,100693.84
2022-10-11T15:25:42.931Z,100691.69
2022-10-11T15:28:45.769Z,100691.66
2022-10-11T15:31:49.374Z,100689.78
2022-10-11T15:34:51.670Z,100697.88
2022-10-11T15:37:56.669Z,100704.06
2022-10-11T15:40:59.758Z,100689.75
2022-10-11T15:44:02.061Z,100706.78
2022-10-11T15:47:04.522Z,100706.69
2022-10-11T15:50:33.801Z,100712.59
2022-10-11T15:53:36.261Z,100708.47
2022-10-11T15:56:38.593Z,100703.84
2022-10-11T15:59:40.854Z,100709.22
2022-10-11T16:02:43.124Z,100709.91
2022-10-11T16:05:45.476Z,100720.34
2022-10-11T16:08:48.081Z,100710.28
2022-10-11T16:11:50.380Z,100711.84
2022-10-11T16:14:52.784Z,100732.06
2022-10-11T16:17:55.099Z,100736.69
2022-10-11T16:20:57.365Z,100737.47
2022-10-11T16:23:59.651Z,100736.06
2022-10-11T16:27:01.915Z,100732.47
2022-10-11T16:30:05.024Z,100746.16
2022-10-11T16:33:07.315Z,100738.75
2022-10-11T16:36:28.152Z,100733.81
2022-10-11T16:39:30.460Z,100747.16
2022-10-11T16:42:33.082Z,100751.41
2022-10-11T16:45:36.013Z,100751.41
2022-10-11T16:48:38.393Z,100752.19
2022-10-11T16:51:40.885Z,100761.44
2022-10-11T16:54:45.036Z,100764.88
2022-10-11T16:57:47.581Z,100765.84
2022-10-11T17:00:50.743Z,100763.41
2022-10-11T17:03:53.271Z,100770.34
2022-10-11T17:06:56.502Z,100771.91
2022-10-11T17:10:00.991Z,100777.06
2022-10-11T17:13:03.203Z,100773.78
2022-10-11T17:16:06.287Z,100776.69
2022-10-11T17:19:14.135Z,100786.94
2022-10-11T17:22:19.347Z,100786.13
2022-10-11T17:25:21.702Z,100769.53
2022-10-11T17:28:24.225Z,100790.13
2022-10-11T17:31:28.030Z,100772.97
2022-10-11T17:34:30.837Z,100791.69
2022-10-11T17:37:34.549Z,100797.91
2022-10-11T17:40:36.888Z,100793.00
2022-10-11T17:43:41.954Z,100790.00
2022-10-11T17:46:44.430Z,100794.38
2022-10-11T17:49:46.912Z,100785.25
2022-10-11T17:52:49.439Z,100789.69
2022-10-11T17:55:53.429Z,100798.78
2022-10-11T17:58:56.920Z,100794.72
2022-10-11T18:01:59.249Z,100789.25
2022-10-11T18:05:01.581Z,100793.22
2022-10-11T18:08:03.877Z,100790.31
2022-10-11T18:11:10.681Z,100795.38
2022-10-11T18:14:14.804Z,100800.81
2022-10-11T18:17:17.745Z,100798.00
2022-10-11T18:20:20.338Z,100797.88
2022-10-11T18:23:22.759Z,100818.81
2022-10-11T18:26:30.154Z,100814.91
2022-10-11T18:29:32.848Z,100798.31
2022-10-11T18:32:35.274Z,100804.47
2022-10-11T18:35:38.154Z,100821.69
2022-10-11T18:38:46.270Z,100825.69
2022-10-11T18:41:49.032Z,100820.59
2022-10-11T18:44:51.322Z,100810.59
2022-10-11T18:47:53.652Z,100808.41
2022-10-11T18:51:07.295Z,100802.38
2022-10-11T18:54:12.956Z,100805.00
2022-10-11T18:57:17.705Z,100802.03
2022-10-11T19:00:39.748Z,100804.72
2022-10-11T19:03:43.525Z,100800.72
2022-10-11T19:06:50.801Z,100809.75
2022-10-11T19:09:52.996Z,100803.97
2022-10-11T19:12:55.281Z,100810.91
2022-10-11T19:16:04.139Z,100806.66
2022-10-11T19:19:07.469Z,100810.06
2022-10-11T19:22:09.790Z,100806.63
2022-10-11T19:25:12.157Z,100804.56
2022-10-11T19:28:15.823Z,100807.41
2022-10-11T19:31:18.195Z,100815.38
2022-10-11T19:34:21.570Z,100820.75
2022-10-11T19:37:23.982Z,100814.13
2022-10-11T19:40:29.147Z,100816.38
2022-10-11T19:43:33.975Z,100821.50
2022-10-11T19:46:52.926Z,100820.84
2022-10-11T19:49:55.584Z,100814.41
2022-10-11T19:52:57.900Z,100814.88
2022-10-11T19:56:02.385Z,100820.50
2022-10-11T19:59:06.516Z,100822.38
2022-10-11T20:02:10.609Z,100817.69
2022-10-11T20:05:13.894Z,100814.66
2022-10-11T20:08:16.285Z,100817.22
2022-10-11T20:11:19.992Z,100815.97
2022-10-11T20:14:22.523Z,100823.31
2022-10-11T20:17:44.897Z,100833.66
2022-10-11T20:20:55.027Z,100835.66
2022-10-11T20:24:02.679Z,100820.72
2022-10-11T20:27:05.695Z,100825.50
2022-10-11T20:30:08.551Z,100818.03
2022-10-11T20:33:10.814Z,100820.25
2022-10-11T20:36:19.392Z,100814.75
2022-10-11T20:39:22.049Z,100814.53
2022-10-11T20:42:28.952Z,100834.59
2022-10-11T20:45:32.129Z,100848.44
2022-10-11T20:48:35.729Z,100840.72
2022-10-11T20:51:39.414Z,100830.81
2022-10-11T20:54:41.777Z,100832.28
2022-10-11T20:57:44.101Z,100851.53
2022-10-11T21:00:46.841Z,100837.50
2022-10-11T21:03:49.230Z,100848.25
2022-10-11T21:06:51.479Z,100839.28
2022-10-11T21:09:53.852Z,100837.97
2022-10-11T21:12:56.224Z,100841.31
2022-10-11T21:16:11.278Z,100840.75
2022-10-11T21:19:15.340Z,100841.69
2022-10-11T21:22:17.605Z,100849.19
2022-10-11T21:25:20.039Z,100835.16
2022-10-11T21:28:22.438Z,100844.88
2022-10-11T21:31:26.627Z,100842.44
2022-10-11T21:34:31.937Z,100836.88
2022-10-11T21:37:34.382Z,100852.69
2022-10-11T21:40:40.606Z,100843.47
2022-10-11T21:43:43.212Z,100843.88
2022-10-11T21:47:06.044Z,100847.13
2022-10-11T21:50:08.950Z,100843.41
2022-10-11T21:53:11.388Z,100844.44
2022-10-11T21:56:14.044Z,100838.28
2022-10-11T21:59:16.326Z,100838.78
2022-10-11T22:02:18.631Z,100836.94
2022-10-11T22:05:21.010Z,100844.66
2022-10-11T22:08:23.452Z,100842.06
2022-10-11T22:11:25.718Z,100833.78
2022-10-11T22:14:28.950Z,100845.47
2022-10-11T22:17:31.189Z,100843.25
2022-10-11T22:20:33.648Z,100839.97
2022-10-11T22:23:36.310Z,100847.09
2022-10-11T22:26:38.834Z,100848.59
2022-10-11T22:29:41.307Z,100843.13
2022-10-11T22:32:43.611Z,100836.97
2022-10-11T22:35:45.846Z,100844.53
2022-10-11T22:38:48.150Z,100847.13
2022-10-11T22:41:50.512Z,100854.59
2022-10-11T22:44:53.327Z,100855.53
2022-10-11T22:47:55.581Z,100842.34
2022-10-11T22:50:57.990Z,100849.34
2022-10-11T22:54:00.321Z,100841.22
2022-10-11T22:57:02.717Z,100844.09
2022-10-11T23:00:05.819Z,100857.78
2022-10-11T23:03:08.199Z,100845.53
2022-10-11T23:06:10.540Z,100841.09
2022-10-11T23:09:12.989Z,100852.19
2022-10-11T23:12:15.598Z,100846.94
2022-10-11T23:15:17.935Z,100853.69
2022-10-11T23:18:20.352Z,100861.84
2022-10-11T23:21:22.621Z,100869.56
2022-10-11T23:24:25.078Z,100866.16
2022-10-11T23:27:29.374Z,100863.25
2022-10-11T23:30:31.801Z,100862.19
2022-10-11T23:33:34.280Z,100863.25
2022-10-11T23:36:36.561Z,100876.88
2022-10-11T23:39:38.870Z,100871.63
2022-10-11T23:42:41.127Z,100865.69
2022-10-11T23:45:44.361Z,100864.66
2022-10-11T23:48:46.693Z,100865.25
2022-10-11T23:51:48.916Z,100863.25
2022-10-11T23:54:51.286Z,100875.25
2022-10-11T23:57:53.615Z,100865.00
